Time;durP1;ratioP1;P1;durP2;ratioP2;P2;SDS_P1;SDS_P2;PMS_P1;PMS_P2;Temp;Humidity;BMP_temperature;BMP_pressure;BME280_temperature;BME280_humidity;BME280_pressure;Samples;Min_cycle;Max_cycle;Signal;HPM_P1;HPM_P2
2024/01/22 00:02:01;;;;;;;2.03;1.60;;;2.50;99.90;;;;;;5086678;28;20226;-70
2024/01/22 00:04:27;;;;;;;1.63;1.37;;;2.60;99.90;;;;;;5115191;27;20274;-71
2024/01/22 00:06:53;;;;;;;6.07;2.03;;;2.60;99.90;;;;;;5119760;27;20452;-70
2024/01/22 00:09:19;;;;;;;6.70;2.20;;;2.60;99.90;;;;;;5090559;27;20965;-71
2024/01/22 00:11:45;;;;;;;4.43;2.60;;;2.60;99.90;;;;;;5120802;27;20218;-71
2024/01/22 00:14:10;;;;;;;12.50;2.20;;;2.70;99.90;;;;;;5115038;27;20509;-71
2024/01/22 00:16:39;;;;;;;4.90;2.17;;;2.70;99.90;;;;;;5123222;27;20218;-71
2024/01/22 00:19:06;;;;;;;3.90;2.70;;;2.70;99.90;;;;;;5107530;27;20230;-70
2024/01/22 00:21:32;;;;;;;4.33;2.63;;;2.70;99.90;;;;;;5122450;27;20447;-71
2024/01/22 00:23:57;;;;;;;5.60;2.17;;;2.70;99.90;;;;;;5104592;28;20474;-70
2024/01/22 00:26:23;;;;;;;3.00;2.00;;;2.70;99.90;;;;;;5115238;27;20683;-71
2024/01/22 00:28:48;;;;;;;2.20;1.70;;;2.70;99.90;;;;;;5107852;27;20273;-70
2024/01/22 00:31:14;;;;;;;3.03;1.90;;;2.70;99.90;;;;;;5102344;27;20214;-70
2024/01/22 00:33:42;;;;;;;2.57;1.70;;;2.80;99.90;;;;;;5120418;27;20323;-71
2024/01/22 00:36:12;;;;;;;5.70;2.13;;;2.80;99.90;;;;;;5109724;27;20669;-70
2024/01/22 00:38:37;;;;;;;4.77;1.67;;;2.80;99.90;;;;;;5108173;27;20468;-71
2024/01/22 00:41:04;;;;;;;4.40;2.07;;;2.80;99.90;;;;;;5104664;28;20444;-71
2024/01/22 00:43:30;;;;;;;3.60;1.87;;;2.90;99.90;;;;;;5101033;27;20229;-71
2024/01/22 00:45:55;;;;;;;1.73;1.40;;;2.90;99.90;;;;;;5107852;27;20456;-71
2024/01/22 00:48:21;;;;;;;1.63;1.37;;;2.90;99.90;;;;;;5101442;27;20294;-71
2024/01/22 00:50:46;;;;;;;2.23;1.40;;;2.90;99.90;;;;;;5121274;27;20236;-71
2024/01/22 00:53:12;;;;;;;10.03;1.60;;;2.90;99.90;;;;;;5104937;27;20255;-71
2024/01/22 00:55:38;;;;;;;10.30;1.60;;;2.90;99.90;;;;;;5088439;28;20305;-70
2024/01/22 00:58:03;;;;;;;2.07;1.47;;;3.00;99.90;;;;;;5103414;27;20217;-70
2024/01/22 01:00:29;;;;;;;6.10;1.80;;;3.00;99.90;;;;;;5119146;27;20280;-71
2024/01/22 01:02:55;;;;;;;2.90;1.83;;;3.00;99.90;;;;;;5124358;27;20383;-71
2024/01/22 01:05:21;;;;;;;3.60;1.43;;;3.10;99.90;;;;;;5098940;27;20312;-72
2024/01/22 01:07:46;;;;;;;2.30;1.53;;;3.10;99.90;;;;;;5114709;27;20254;-71
2024/01/22 01:10:12;;;;;;;1.73;1.17;;;3.10;99.90;;;;;;5106992;27;20245;-70
2024/01/22 01:12:37;;;;;;;1.83;1.60;;;3.10;99.90;;;;;;5102430;27;20253;-71
2024/01/22 01:15:05;;;;;;;3.20;2.00;;;3.10;99.90;;;;;;5093986;27;20230;-71
2024/01/22 01:17:31;;;;;;;2.13;1.47;;;3.10;99.90;;;;;;5113807;27;20238;-71
2024/01/22 01:19:57;;;;;;;2.20;1.63;;;3.10;99.90;;;;;;5101064;27;20486;-71
2024/01/22 01:22:22;;;;;;;2.47;1.53;;;3.10;99.90;;;;;;5082171;27;20210;-71
2024/01/22 01:24:48;;;;;;;2.10;1.17;;;3.10;99.90;;;;;;5119637;27;20783;-71
2024/01/22 01:27:17;;;;;;;1.77;1.60;;;3.10;99.90;;;;;;5086558;28;20220;-71
2024/01/22 01:29:43;;;;;;;1.43;1.33;;;3.10;99.90;;;;;;5114270;27;20229;-71
2024/01/22 01:32:09;;;;;;;2.03;1.50;;;3.10;99.90;;;;;;5103467;27;20441;-71
2024/01/22 01:34:34;;;;;;;2.77;1.70;;;3.10;99.90;;;;;;5114838;27;20225;-72
2024/01/22 01:37:00;;;;;;;2.50;1.80;;;3.10;99.90;;;;;;5122875;27;20221;-71
2024/01/22 01:39:26;;;;;;;2.47;1.60;;;3.10;99.90;;;;;;5099362;27;20213;-71
2024/01/22 01:41:51;;;;;;;1.33;1.23;;;3.20;99.90;;;;;;5099595;27;20642;-72
2024/01/22 01:44:17;;;;;;;3.47;1.30;;;3.20;99.90;;;;;;5112806;27;20236;-71
2024/01/22 01:46:42;;;;;;;2.10;1.73;;;3.20;99.90;;;;;;5124007;27;20312;-72
2024/01/22 01:49:09;;;;;;;2.03;1.40;;;3.30;99.90;;;;;;5120203;27;20292;-71
2024/01/22 01:51:37;;;;;;;3.63;1.80;;;3.30;99.90;;;;;;5119499;27;20262;-72
2024/01/22 01:54:05;;;;;;;4.57;1.67;;;3.30;99.90;;;;;;5089524;27;20463;-71
2024/01/22 01:56:31;;;;;;;2.27;1.80;;;3.30;99.90;;;;;;5102461;27;20462;-72
2024/01/22 01:58:57;;;;;;;2.93;1.70;;;3.30;99.90;;;;;;5089250;27;20841;-71
2024/01/22 02:01:23;;;;;;;2.50;1.40;;;3.30;99.90;;;;;;5084956;27;20459;-72
2024/01/22 02:03:49;;;;;;;1.13;1.10;;;3.30;99.90;;;;;;5106987;27;20228;-71
2024/01/22 02:06:15;;;;;;;2.10;1.80;;;3.30;99.90;;;;;;5120898;27;20248;-71
2024/01/22 02:08:50;;;;;;;2.10;1.23;;;3.30;99.90;;;;;;5102512;27;20598;-70
2024/01/22 02:11:18;;;;;;;4.47;1.70;;;3.40;99.90;;;;;;5103264;27;20462;-71
2024/01/22 02:13:44;;;;;;;3.90;1.60;;;3.40;99.90;;;;;;5123333;27;20461;-70
2024/01/22 02:16:09;;;;;;;4.53;1.63;;;3.50;99.90;;;;;;5124848;27;20447;-71
2024/01/22 02:18:35;;;;;;;1.73;1.63;;;3.50;99.90;;;;;;5098344;27;20294;-71
2024/01/22 02:21:01;;;;;;;5.10;1.57;;;3.50;99.90;;;;;;5118330;27;20660;-71
2024/01/22 02:23:26;;;;;;;2.33;1.50;;;3.50;99.90;;;;;;5099684;27;20217;-71
2024/01/22 02:25:52;;;;;;;2.13;1.50;;;3.50;99.90;;;;;;5104306;27;20248;-71
2024/01/22 02:28:18;;;;;;;3.27;1.40;;;3.50;99.90;;;;;;5094536;28;20253;-71
2024/01/22 02:30:43;;;;;;;1.77;1.40;;;3.60;99.90;;;;;;5098513;28;20302;-71
2024/01/22 02:33:09;;;;;;;1.90;1.73;;;3.60;99.90;;;;;;5117180;27;20252;-71
2024/01/22 02:35:35;;;;;;;1.23;1.20;;;3.60;99.90;;;;;;5093599;27;20483;-72
2024/01/22 02:38:01;;;;;;;2.60;1.33;;;3.60;99.90;;;;;;5105350;27;20236;-71
2024/01/22 02:40:26;;;;;;;6.30;2.70;;;3.70;99.90;;;;;;5084819;27;20216;-72
2024/01/22 02:42:52;;;;;;;3.97;3.53;;;3.70;99.90;;;;;;5110797;27;20452;-71
2024/01/22 02:45:18;;;;;;;1.73;1.50;;;3.70;99.90;;;;;;5098637;27;20597;-71
2024/01/22 02:47:43;;;;;;;1.30;1.20;;;3.70;99.90;;;;;;5100678;27;20770;-72
2024/01/22 02:50:09;;;;;;;5.70;1.63;;;3.70;99.90;;;;;;5102903;27;20252;-71
2024/01/22 02:52:35;;;;;;;2.60;1.60;;;3.70;99.90;;;;;;5117846;27;20241;-71
2024/01/22 02:55:00;;;;;;;1.80;1.60;;;3.70;99.90;;;;;;5114140;27;20309;-71
2024/01/22 02:57:26;;;;;;;1.60;1.27;;;3.70;99.90;;;;;;5102816;27;20757;-72
2024/01/22 02:59:52;;;;;;;2.07;1.13;;;3.80;99.90;;;;;;5103167;27;20233;-70
2024/01/22 03:02:17;;;;;;;3.50;1.20;;;3.80;99.90;;;;;;5115276;27;20230;-71
2024/01/22 03:04:43;;;;;;;3.10;1.30;;;3.80;99.90;;;;;;5119738;27;20225;-71
2024/01/22 03:07:09;;;;;;;1.60;1.37;;;3.80;99.90;;;;;;5111165;27;20270;-70
2024/01/22 03:09:35;;;;;;;1.40;1.30;;;3.90;99.90;;;;;;5098529;28;20464;-71
2024/01/22 03:12:01;;;;;;;1.13;1.07;;;4.00;99.90;;;;;;5122200;27;20248;-71
2024/01/22 03:14:27;;;;;;;3.90;1.53;;;4.00;99.90;;;;;;5099699;28;20487;-71
2024/01/22 03:16:52;;;;;;;2.63;1.30;;;4.20;99.90;;;;;;5101665;28;20451;-71
2024/01/22 03:19:18;;;;;;;1.80;1.17;;;4.10;99.90;;;;;;5095507;28;20242;-71
2024/01/22 03:21:44;;;;;;;1.77;1.40;;;4.10;99.90;;;;;;5085959;28;20241;-71
2024/01/22 03:24:09;;;;;;;4.10;1.53;;;4.10;99.90;;;;;;5104298;28;20301;-71
2024/01/22 03:26:35;;;;;;;1.50;1.40;;;4.10;99.90;;;;;;5120146;27;20244;-71
2024/01/22 03:29:00;;;;;;;1.00;0.90;;;4.10;99.90;;;;;;5104899;28;20300;-71
2024/01/22 03:31:28;;;;;;;1.77;1.50;;;4.20;99.90;;;;;;5093852;27;20702;-72
2024/01/22 03:33:55;;;;;;;2.63;1.33;;;4.20;99.90;;;;;;5123638;27;20230;-71
2024/01/22 03:36:21;;;;;;;1.83;1.30;;;4.20;99.90;;;;;;5094641;27;20523;-71
2024/01/22 03:38:47;;;;;;;2.40;1.27;;;4.20;99.90;;;;;;5108234;27;20467;-71
2024/01/22 03:41:13;;;;;;;2.13;1.57;;;4.20;99.90;;;;;;5083748;28;20479;-72
2024/01/22 03:43:42;;;;;;;1.83;1.13;;;4.20;99.90;;;;;;5090515;27;20229;-71
2024/01/22 03:46:08;;;;;;;3.23;1.57;;;4.20;99.90;;;;;;5119613;27;20992;-71
2024/01/22 03:48:34;;;;;;;1.43;1.10;;;4.30;99.90;;;;;;5087407;27;20471;-72
2024/01/22 03:50:59;;;;;;;5.73;1.13;;;4.30;99.90;;;;;;5073716;28;20456;-71
2024/01/22 03:53:25;;;;;;;1.17;1.00;;;4.30;99.90;;;;;;5121836;27;20249;-72
2024/01/22 03:55:51;;;;;;;4.20;1.57;;;4.30;99.90;;;;;;5095110;27;20222;-71
2024/01/22 03:58:16;;;;;;;2.50;1.57;;;4.30;99.90;;;;;;5087263;27;20241;-71
2024/01/22 04:00:42;;;;;;;1.83;1.40;;;4.30;99.90;;;;;;5105199;27;20229;-71
2024/01/22 04:03:08;;;;;;;1.30;1.00;;;4.30;99.90;;;;;;5127592;27;20217;-71
2024/01/22 04:05:34;;;;;;;7.50;1.47;;;4.30;99.90;;;;;;5120352;27;20644;-72
2024/01/22 04:07:59;;;;;;;2.63;1.27;;;4.30;99.90;;;;;;5101085;28;20558;-71
2024/01/22 04:10:26;;;;;;;3.10;1.30;;;4.30;99.90;;;;;;5119808;27;20653;-72
2024/01/22 04:12:55;;;;;;;1.20;1.10;;;4.30;99.90;;;;;;5104045;28;20254;-71
2024/01/22 04:15:21;;;;;;;1.40;1.30;;;4.30;99.90;;;;;;5101000;28;20487;-72
2024/01/22 04:17:46;;;;;;;1.40;1.30;;;4.30;99.90;;;;;;5115063;27;20505;-71
2024/01/22 04:20:12;;;;;;;2.53;1.90;;;4.40;99.90;;;;;;5105280;27;20304;-72
2024/01/22 04:22:38;;;;;;;3.90;1.13;;;4.50;99.90;;;;;;5086423;27;20305;-72
2024/01/22 04:25:04;;;;;;;3.43;1.63;;;4.50;99.90;;;;;;5112643;27;20478;-71
2024/01/22 04:27:30;;;;;;;5.13;1.20;;;4.50;99.90;;;;;;5115842;27;20210;-72
2024/01/22 04:29:56;;;;;;;2.30;1.60;;;4.40;99.90;;;;;;5101774;27;20496;-72
2024/01/22 04:32:21;;;;;;;3.60;1.37;;;4.40;99.90;;;;;;5102940;27;20640;-72
2024/01/22 04:34:50;;;;;;;1.70;1.30;;;4.50;99.90;;;;;;5119452;27;20460;-70
2024/01/22 04:37:16;;;;;;;1.83;1.10;;;4.50;99.90;;;;;;5108276;27;20230;-72
2024/01/22 04:39:42;;;;;;;2.13;1.10;;;4.50;99.90;;;;;;5118031;27;20458;-71
2024/01/22 04:42:08;;;;;;;1.27;1.10;;;4.50;99.90;;;;;;5086923;28;20456;-71
2024/01/22 04:44:33;;;;;;;1.87;1.03;;;4.50;99.90;;;;;;5079179;28;20218;-72
2024/01/22 04:47:00;;;;;;;2.83;1.27;;;4.60;99.90;;;;;;5069307;28;21050;-71
2024/01/22 04:49:26;;;;;;;3.90;1.00;;;4.60;99.90;;;;;;5082186;28;20252;-72
2024/01/22 04:51:51;;;;;;;2.63;1.23;;;4.60;99.90;;;;;;5089320;28;20480;-72
2024/01/22 04:54:17;;;;;;;1.50;1.30;;;4.60;99.90;;;;;;5088994;27;20613;-72
2024/01/22 04:56:47;;;;;;;1.23;1.10;;;4.70;99.90;;;;;;5075057;27;20237;-74
2024/01/22 04:59:13;;;;;;;1.27;1.10;;;4.70;99.90;;;;;;5108525;27;20688;-73
2024/01/22 05:01:40;;;;;;;2.43;1.40;;;4.70;99.90;;;;;;5088785;27;20451;-72
2024/01/22 05:04:06;;;;;;;1.57;1.23;;;4.70;99.90;;;;;;5097623;27;20452;-73
2024/01/22 05:06:32;;;;;;;1.20;1.10;;;4.80;99.90;;;;;;5097278;27;20455;-72
2024/01/22 05:08:57;;;;;;;6.50;1.63;;;4.80;99.90;;;;;;5121285;27;20452;-73
2024/01/22 05:11:23;;;;;;;1.13;1.10;;;4.80;99.90;;;;;;5100663;28;20218;-72
2024/01/22 05:13:51;;;;;;;0.90;0.90;;;4.80;99.90;;;;;;5111801;27;20224;-72
2024/01/22 05:16:18;;;;;;;3.57;1.53;;;4.80;99.90;;;;;;5127718;27;20541;-72
2024/01/22 05:18:44;;;;;;;0.83;0.83;;;4.80;99.90;;;;;;5101067;27;20483;-72
2024/01/22 05:21:10;;;;;;;1.97;1.40;;;4.80;99.90;;;;;;5101663;27;20510;-72
2024/01/22 05:23:37;;;;;;;4.10;1.53;;;4.70;99.90;;;;;;5083234;28;21027;-73
2024/01/22 05:26:03;;;;;;;1.03;0.93;;;4.70;99.90;;;;;;5087010;28;20460;-73
2024/01/22 05:28:29;;;;;;;1.83;1.20;;;4.70;99.90;;;;;;5081022;27;20460;-73
2024/01/22 05:30:58;;;;;;;2.33;1.00;;;4.80;99.90;;;;;;5106313;27;20551;-74
2024/01/22 05:33:24;;;;;;;1.47;1.37;;;4.80;99.90;;;;;;5094026;27;20213;-72
2024/01/22 05:35:50;;;;;;;2.20;1.60;;;4.80;99.90;;;;;;5106811;27;20551;-72
2024/01/22 05:38:16;;;;;;;0.93;0.93;;;4.80;99.90;;;;;;5095584;28;20233;-72
2024/01/22 05:40:41;;;;;;;2.17;1.10;;;4.80;99.90;;;;;;5100310;28;20211;-73
2024/01/22 05:43:08;;;;;;;3.63;1.37;;;4.90;99.90;;;;;;5086351;28;20214;-72
2024/01/22 05:45:33;;;;;;;1.53;1.03;;;4.90;99.90;;;;;;5079302;28;20299;-72
2024/01/22 05:47:59;;;;;;;6.10;1.37;;;5.00;99.90;;;;;;5100362;27;20547;-73
2024/01/22 05:50:24;;;;;;;1.67;1.10;;;5.00;99.90;;;;;;5114471;27;20214;-73
2024/01/22 05:52:50;;;;;;;1.50;1.40;;;4.90;99.90;;;;;;5124325;27;20246;-73
2024/01/22 05:55:16;;;;;;;1.63;1.27;;;5.00;99.90;;;;;;5098744;28;20219;-72
2024/01/22 05:57:41;;;;;;;1.13;1.03;;;4.90;99.90;;;;;;5118559;27;20213;-73
2024/01/22 06:00:13;;;;;;;3.00;1.70;;;5.00;99.90;;;;;;5097751;28;20237;-72
2024/01/22 06:02:42;;;;;;;0.80;0.80;;;5.00;99.90;;;;;;5099707;28;20240;-72
2024/01/22 06:05:11;;;;;;;1.67;1.27;;;5.00;99.90;;;;;;5087698;28;20455;-73
2024/01/22 06:07:37;;;;;;;2.60;1.20;;;5.00;99.90;;;;;;5096399;27;20543;-73
2024/01/22 06:10:05;;;;;;;1.53;1.17;;;5.00;99.90;;;;;;5105238;27;20534;-73
2024/01/22 06:12:31;;;;;;;3.60;1.63;;;5.00;99.90;;;;;;5100349;27;20491;-73
2024/01/22 06:14:57;;;;;;;3.00;1.27;;;5.00;99.90;;;;;;5102243;27;20467;-72
2024/01/22 06:17:23;;;;;;;2.23;1.47;;;5.00;99.90;;;;;;5108217;27;20978;-73
2024/01/22 06:19:49;;;;;;;3.30;1.20;;;5.00;99.90;;;;;;5116216;27;20512;-73
2024/01/22 06:22:17;;;;;;;1.70;1.60;;;5.10;99.90;;;;;;5099994;27;20457;-73
2024/01/22 06:24:44;;;;;;;1.33;1.20;;;5.10;99.90;;;;;;5101245;27;20214;-73
2024/01/22 06:27:09;;;;;;;5.30;1.60;;;5.10;99.90;;;;;;5103877;27;20550;-73
2024/01/22 06:29:35;;;;;;;1.40;1.27;;;5.20;99.90;;;;;;5121224;27;20539;-73
2024/01/22 06:32:01;;;;;;;1.17;1.07;;;5.20;99.90;;;;;;5089570;27;20237;-72
2024/01/22 06:34:27;;;;;;;1.50;1.37;;;5.20;99.90;;;;;;5098093;27;20284;-72
2024/01/22 06:36:52;;;;;;;2.70;1.10;;;5.20;99.90;;;;;;5119543;27;20864;-72
2024/01/22 06:39:18;;;;;;;4.07;1.50;;;5.30;99.90;;;;;;5097485;27;20699;-73
2024/01/22 06:41:44;;;;;;;0.90;0.80;;;5.30;99.90;;;;;;5099883;27;20717;-73
2024/01/22 06:44:09;;;;;;;3.00;1.70;;;5.30;99.90;;;;;;5119108;27;20589;-72
2024/01/22 06:46:35;;;;;;;1.20;1.10;;;5.30;99.90;;;;;;5091475;27;20210;-73
2024/01/22 06:49:01;;;;;;;1.70;1.37;;;5.40;99.90;;;;;;5108855;27;20201;-73
2024/01/22 06:51:29;;;;;;;11.97;2.03;;;5.30;99.90;;;;;;5093952;27;20213;-72
2024/01/22 06:53:55;;;;;;;1.23;1.17;;;5.40;99.90;;;;;;5115267;27;20232;-73
2024/01/22 06:56:22;;;;;;;2.53;1.10;;;5.40;99.90;;;;;;5110454;27;20518;-73
2024/01/22 06:58:48;;;;;;;1.50;1.37;;;5.40;99.90;;;;;;5096791;28;20521;-72
2024/01/22 07:01:14;;;;;;;1.93;1.30;;;5.40;99.90;;;;;;5118740;27;20455;-73
2024/01/22 07:03:40;;;;;;;1.60;1.40;;;5.50;99.90;;;;;;5096000;27;20703;-73
2024/01/22 07:06:05;;;;;;;1.30;1.17;;;5.50;99.90;;;;;;5102656;28;20221;-72
2024/01/22 07:08:31;;;;;;;1.40;1.30;;;5.50;99.90;;;;;;5113030;27;20455;-73
2024/01/22 07:11:00;;;;;;;3.70;1.30;;;5.50;99.90;;;;;;5105670;28;20297;-72
2024/01/22 07:13:25;;;;;;;1.50;1.40;;;5.50;99.90;;;;;;5096236;28;20225;-73
2024/01/22 07:15:51;;;;;;;1.30;1.20;;;5.60;99.90;;;;;;5084799;28;20447;-73
2024/01/22 07:18:17;;;;;;;1.60;1.10;;;5.60;99.90;;;;;;5085408;27;20287;-73
2024/01/22 07:20:42;;;;;;;1.87;1.40;;;5.60;99.90;;;;;;5111623;27;20215;-73
2024/01/22 07:23:08;;;;;;;1.80;1.40;;;5.60;99.90;;;;;;5099803;28;20217;-73
2024/01/22 07:25:36;;;;;;;2.80;1.87;;;5.60;99.90;;;;;;5093632;28;20703;-72
2024/01/22 07:28:03;;;;;;;2.10;1.30;;;5.60;99.90;;;;;;5100411;28;20225;-72
2024/01/22 07:30:29;;;;;;;1.33;1.23;;;5.60;99.90;;;;;;5108821;27;20968;-73
2024/01/22 07:32:55;;;;;;;2.73;1.60;;;5.60;99.90;;;;;;5097383;28;20532;-74
2024/01/22 07:35:21;;;;;;;1.77;1.67;;;5.70;99.90;;;;;;5081289;28;20475;-73
2024/01/22 07:37:46;;;;;;;2.33;1.30;;;5.70;99.90;;;;;;5116683;27;20213;-73
2024/01/22 07:40:12;;;;;;;2.43;1.67;;;5.70;99.90;;;;;;5098511;28;20216;-73
2024/01/22 07:42:40;;;;;;;2.80;1.97;;;5.70;99.90;;;;;;5117881;27;25841;-73
2024/01/22 07:45:07;;;;;;;3.80;1.57;;;5.70;99.90;;;;;;5106881;28;20455;-72
2024/01/22 07:47:34;;;;;;;1.40;1.30;;;5.80;99.90;;;;;;5101600;28;20463;-73
2024/01/22 07:49:59;;;;;;;2.40;2.00;;;5.80;99.90;;;;;;5108333;28;20444;-74
2024/01/22 07:52:25;;;;;;;1.70;1.60;;;5.80;99.90;;;;;;5118205;27;20539;-73
2024/01/22 07:54:51;;;;;;;3.10;2.07;;;5.80;99.90;;;;;;5120175;27;20214;-73
2024/01/22 07:57:16;;;;;;;2.00;1.80;;;6.00;99.90;;;;;;5109878;28;20217;-73
2024/01/22 07:59:42;;;;;;;4.27;2.30;;;6.00;99.90;;;;;;5125364;27;20214;-73
2024/01/22 08:02:08;;;;;;;2.73;1.77;;;5.90;99.90;;;;;;5106755;28;20221;-73
2024/01/22 08:04:36;;;;;;;1.87;1.77;;;5.90;99.90;;;;;;5085844;28;20214;-73
2024/01/22 08:07:03;;;;;;;2.50;1.60;;;6.10;99.90;;;;;;5107649;28;20201;-73
2024/01/22 08:09:31;;;;;;;1.80;1.40;;;6.00;99.90;;;;;;5125707;27;20451;-73
2024/01/22 08:11:57;;;;;;;2.57;1.80;;;6.10;99.90;;;;;;5102848;28;20443;-73
2024/01/22 08:14:22;;;;;;;1.80;1.30;;;6.20;99.90;;;;;;5109271;28;20470;-73
2024/01/22 08:16:49;;;;;;;2.20;1.30;;;6.20;99.90;;;;;;5107993;27;20634;-74
2024/01/22 08:19:16;;;;;;;2.50;1.60;;;6.30;99.90;;;;;;5089626;28;20691;-73
2024/01/22 08:21:41;;;;;;;2.03;1.70;;;6.20;99.90;;;;;;5112033;27;20486;-73
2024/01/22 08:24:07;;;;;;;3.53;2.20;;;6.20;99.90;;;;;;5104590;28;20480;-73
2024/01/22 08:26:32;;;;;;;2.07;1.70;;;6.30;99.90;;;;;;5103637;27;20213;-74
2024/01/22 08:28:58;;;;;;;2.53;1.67;;;6.20;99.90;;;;;;5107370;27;20224;-74
2024/01/22 08:31:24;;;;;;;5.60;1.47;;;6.20;99.90;;;;;;5099583;27;20221;-74
2024/01/22 08:33:50;;;;;;;1.30;1.17;;;6.20;99.90;;;;;;5104951;27;20222;-73
2024/01/22 08:36:16;;;;;;;3.47;1.93;;;6.20;99.90;;;;;;5093908;27;20217;-72
2024/01/22 08:38:41;;;;;;;1.80;1.70;;;6.20;99.90;;;;;;5124240;27;20879;-73
2024/01/22 08:41:08;;;;;;;2.30;1.60;;;6.20;99.90;;;;;;5107989;27;20243;-73
2024/01/22 08:43:35;;;;;;;1.80;1.70;;;6.20;99.90;;;;;;5121903;27;20241;-73
2024/01/22 08:46:01;;;;;;;1.40;1.30;;;6.20;99.90;;;;;;5126888;27;20508;-73
2024/01/22 08:48:26;;;;;;;2.57;1.50;;;6.20;99.90;;;;;;5091017;27;21037;-73
2024/01/22 08:50:52;;;;;;;2.03;1.70;;;6.20;99.90;;;;;;5108803;27;20519;-73
2024/01/22 08:53:18;;;;;;;2.83;1.60;;;6.20;99.90;;;;;;5092546;27;20223;-73
2024/01/22 08:55:44;;;;;;;4.30;1.50;;;6.30;99.90;;;;;;5103979;27;20222;-73
2024/01/22 08:58:09;;;;;;;1.70;1.60;;;6.30;99.90;;;;;;5110654;27;20230;-73
2024/01/22 09:00:36;;;;;;;3.07;1.63;;;6.30;99.90;;;;;;5108521;27;20218;-73
2024/01/22 09:03:01;;;;;;;2.83;2.30;;;6.30;99.90;;;;;;5127300;27;20210;-73
2024/01/22 09:05:27;;;;;;;2.40;1.73;;;6.30;99.90;;;;;;5107684;27;20799;-73
2024/01/22 09:07:53;;;;;;;2.50;2.27;;;6.30;99.90;;;;;;5125878;27;20225;-72
2024/01/22 09:10:18;;;;;;;4.33;1.97;;;6.30;99.90;;;;;;5101643;27;20229;-74
2024/01/22 09:12:48;;;;;;;5.07;2.10;;;6.30;99.90;;;;;;5125361;27;20264;-73
2024/01/22 09:15:17;;;;;;;3.37;1.80;;;6.30;99.90;;;;;;5106376;27;20254;-73
2024/01/22 09:17:43;;;;;;;2.40;2.00;;;6.30;99.90;;;;;;5079338;27;20460;-73
2024/01/22 09:20:10;;;;;;;2.10;1.50;;;6.30;99.90;;;;;;5124542;27;20455;-73
2024/01/22 09:22:36;;;;;;;1.67;1.53;;;6.30;99.90;;;;;;5105662;27;20518;-73
2024/01/22 09:25:02;;;;;;;1.83;1.50;;;6.30;99.90;;;;;;5102417;27;20462;-73
2024/01/22 09:27:28;;;;;;;1.60;1.50;;;6.30;99.90;;;;;;5104540;27;20527;-73
2024/01/22 09:29:54;;;;;;;2.30;1.73;;;6.30;99.90;;;;;;5107263;27;20624;-73
2024/01/22 09:32:19;;;;;;;3.20;2.00;;;6.40;99.90;;;;;;5102254;27;20210;-73
2024/01/22 09:34:45;;;;;;;3.73;1.60;;;6.40;99.90;;;;;;5117593;27;20248;-73
2024/01/22 09:37:11;;;;;;;3.33;1.53;;;6.40;99.90;;;;;;5098772;27;20226;-74
2024/01/22 09:39:37;;;;;;;2.30;2.10;;;6.40;99.90;;;;;;5104511;27;20278;-73
2024/01/22 09:42:03;;;;;;;1.80;1.70;;;6.40;99.90;;;;;;5105152;27;20206;-73
2024/01/22 09:44:29;;;;;;;1.80;1.70;;;6.40;99.90;;;;;;5099772;27;20222;-73
2024/01/22 09:46:56;;;;;;;2.67;2.47;;;6.40;99.90;;;;;;5118967;27;20452;-73
2024/01/22 09:49:23;;;;;;;2.47;2.23;;;6.50;99.90;;;;;;5103301;27;20460;-73
2024/01/22 09:51:50;;;;;;;3.83;2.20;;;6.50;99.90;;;;;;5096623;27;20541;-73
2024/01/22 09:54:18;;;;;;;6.10;2.83;;;6.40;99.90;;;;;;5090689;27;20460;-73
2024/01/22 09:56:52;;;;;;;6.20;2.23;;;6.50;99.90;;;;;;5124150;27;20443;-73
2024/01/22 09:59:20;;;;;;;4.27;3.07;;;6.50;99.90;;;;;;5106191;27;20508;-73
2024/01/22 10:01:49;;;;;;;2.40;2.07;;;6.50;99.90;;;;;;5116389;27;20443;-74
2024/01/22 10:04:16;;;;;;;2.07;1.60;;;6.50;99.90;;;;;;5107923;27;20535;-73
2024/01/22 10:06:43;;;;;;;2.50;2.00;;;6.60;99.90;;;;;;5086310;27;21013;-73
2024/01/22 10:09:10;;;;;;;2.83;1.57;;;6.50;99.90;;;;;;5109131;27;20443;-73
2024/01/22 10:11:36;;;;;;;2.23;1.80;;;6.60;99.90;;;;;;5126314;27;20440;-73
2024/01/22 10:14:01;;;;;;;2.23;1.73;;;6.60;99.90;;;;;;5107382;27;20470;-74
2024/01/22 10:16:28;;;;;;;2.70;2.10;;;6.60;99.90;;;;;;5122041;27;20534;-74
2024/01/22 10:19:05;;;;;;;5.40;1.37;;;6.60;99.90;;;;;;5104189;27;20229;-73
2024/01/22 10:21:32;;;;;;;9.40;2.03;;;6.60;99.90;;;;;;5127659;27;20451;-73
2024/01/22 10:24:08;;;;;;;3.30;1.70;;;6.60;99.90;;;;;;5125973;27;20462;-74
2024/01/22 10:26:34;;;;;;;2.00;1.87;;;6.60;99.90;;;;;;5118319;27;20459;-73
2024/01/22 10:29:21;;;;;;;1.70;1.50;;;6.70;99.90;;;;;;5109609;27;20455;-74
2024/01/22 10:31:58;;;;;;;2.27;1.90;;;6.60;99.90;;;;;;5121980;27;20467;-74
2024/01/22 10:34:42;;;;;;;1.77;1.50;;;6.60;99.90;;;;;;5124488;27;20515;-74
2024/01/22 10:37:12;;;;;;;2.20;1.80;;;6.70;99.90;;;;;;5105430;27;58329;-74
2024/01/22 10:39:42;;;;;;;3.47;1.87;;;6.70;99.90;;;;;;5056016;28;214783;-74
2024/01/22 10:42:12;;;;;;;3.40;1.97;;;6.70;99.90;;;;;;5068823;28;200669;-74
2024/01/22 10:44:40;;;;;;;2.00;1.70;;;6.70;99.90;;;;;;5066681;28;20602;-73
2024/01/22 10:47:06;;;;;;;1.87;1.77;;;6.70;99.90;;;;;;5049274;28;20466;-74
2024/01/22 10:49:33;;;;;;;2.70;1.90;;;6.70;99.90;;;;;;5058794;28;20459;-74
2024/01/22 10:52:00;;;;;;;6.80;1.70;;;6.70;99.90;;;;;;5055836;28;20512;-73
2024/01/22 10:54:27;;;;;;;3.13;1.80;;;6.70;99.90;;;;;;5074157;28;20462;-74
2024/01/22 10:57:03;;;;;;;3.33;1.53;;;6.80;99.90;;;;;;5066068;28;20445;-73
2024/01/22 10:59:41;;;;;;;2.20;2.00;;;6.80;99.90;;;;;;5048116;28;20450;-74
2024/01/22 11:02:15;;;;;;;2.20;1.37;;;6.70;99.90;;;;;;5049631;28;20446;-74
2024/01/22 11:04:44;;;;;;;2.87;1.97;;;6.70;99.90;;;;;;5063246;28;20503;-74
2024/01/22 11:07:11;;;;;;;1.80;1.60;;;6.70;99.90;;;;;;5071470;28;20537;-74
2024/01/22 11:09:39;;;;;;;3.67;2.30;;;6.70;99.90;;;;;;5061292;28;20439;-74
2024/01/22 11:12:09;;;;;;;2.17;2.07;;;6.80;99.90;;;;;;5044634;28;20968;-73
2024/01/22 11:14:37;;;;;;;2.20;1.90;;;6.80;99.90;;;;;;5046516;28;20445;-73
2024/01/22 11:17:05;;;;;;;3.37;2.10;;;6.80;99.90;;;;;;5081563;28;20450;-74
2024/01/22 11:19:30;;;;;;;2.10;1.90;;;6.80;99.90;;;;;;5084333;28;20457;-74
2024/01/22 11:21:56;;;;;;;2.47;2.07;;;6.80;99.90;;;;;;5080167;28;20456;-74
2024/01/22 11:24:22;;;;;;;2.30;1.70;;;6.80;99.90;;;;;;5077588;28;20219;-74
2024/01/22 11:26:51;;;;;;;2.27;2.00;;;6.80;99.90;;;;;;5100968;28;20210;-74
2024/01/22 11:29:22;;;;;;;1.67;1.57;;;6.80;99.90;;;;;;5100916;28;20448;-74
2024/01/22 11:31:48;;;;;;;2.50;1.63;;;6.80;99.90;;;;;;5090513;28;20455;-74
2024/01/22 11:34:34;;;;;;;3.90;1.60;;;6.80;99.90;;;;;;5062309;28;20489;-74
2024/01/22 11:37:00;;;;;;;2.00;1.80;;;6.80;99.90;;;;;;5093364;28;20926;-74
2024/01/22 11:39:35;;;;;;;2.37;2.17;;;6.80;99.90;;;;;;5079213;28;20488;-74
2024/01/22 11:42:26;;;;;;;2.23;2.03;;;6.80;99.90;;;;;;5096509;28;20213;-74
2024/01/22 11:44:52;;;;;;;4.50;1.97;;;6.80;99.90;;;;;;5095286;28;20527;-74
2024/01/22 11:47:19;;;;;;;2.33;1.80;;;6.80;99.90;;;;;;5070725;28;20473;-74
2024/01/22 11:49:45;;;;;;;2.23;1.73;;;6.80;99.90;;;;;;5092774;28;20451;-73
2024/01/22 11:52:23;;;;;;;2.17;1.33;;;6.90;99.90;;;;;;5095282;28;20980;-74
2024/01/22 11:54:58;;;;;;;2.00;1.80;;;6.90;99.90;;;;;;5060455;28;20461;-74
2024/01/22 11:57:30;;;;;;;2.60;1.97;;;6.90;99.90;;;;;;5097296;28;21008;-74
2024/01/22 12:00:22;;;;;;;3.17;1.57;;;6.90;99.90;;;;;;5082144;28;20459;-73
2024/01/22 12:02:49;;;;;;;2.53;2.10;;;7.10;99.90;;;;;;5098801;28;20453;-74
2024/01/22 12:05:19;;;;;;;2.23;1.50;;;7.10;99.90;;;;;;5101064;28;20478;-74
2024/01/22 12:07:47;;;;;;;2.90;2.17;;;7.20;99.90;;;;;;5086980;28;20508;-74
2024/01/22 12:10:27;;;;;;;2.50;2.30;;;7.40;99.90;;;;;;5083228;28;20480;-74
2024/01/22 12:12:55;;;;;;;1.50;1.40;;;7.60;99.90;;;;;;5095952;28;20482;-74
2024/01/22 12:15:23;;;;;;;1.73;1.63;;;7.70;99.90;;;;;;5095741;28;20495;-74
2024/01/22 12:17:50;;;;;;;1.50;1.13;;;7.80;99.90;;;;;;5093345;28;20497;-74
2024/01/22 12:20:17;;;;;;;2.33;1.50;;;7.80;99.90;;;;;;5100447;28;20543;-74
2024/01/22 12:22:43;;;;;;;1.70;1.60;;;7.80;99.90;;;;;;5100352;28;20476;-74
2024/01/22 12:25:11;;;;;;;1.60;1.50;;;7.70;99.90;;;;;;5087937;28;20495;-74
2024/01/22 12:27:37;;;;;;;2.53;1.97;;;7.80;99.90;;;;;;5094835;28;20215;-74
2024/01/22 12:30:14;;;;;;;2.80;1.70;;;7.80;99.90;;;;;;5080729;28;20973;-74
2024/01/22 12:32:49;;;;;;;2.13;1.93;;;7.90;99.90;;;;;;5095828;28;20499;-74
2024/01/22 12:35:15;;;;;;;2.60;1.87;;;8.00;99.90;;;;;;5062542;28;20531;-74
2024/01/22 12:37:40;;;;;;;1.80;1.70;;;8.00;99.90;;;;;;5085514;28;20539;-74
2024/01/22 12:40:15;;;;;;;3.27;1.90;;;8.00;99.90;;;;;;5083453;28;20672;-74
2024/01/22 12:42:43;;;;;;;1.80;1.70;;;8.00;99.90;;;;;;5107973;28;20275;-74
2024/01/22 12:45:14;;;;;;;1.30;1.20;;;8.00;99.90;;;;;;5106097;27;20456;-74
2024/01/22 12:47:40;;;;;;;2.17;1.60;;;7.90;99.90;;;;;;5080947;28;20460;-74
2024/01/22 12:50:07;;;;;;;1.90;1.80;;;8.00;99.90;;;;;;5083586;28;20445;-74
2024/01/22 12:52:33;;;;;;;1.93;1.67;;;8.00;99.90;;;;;;5097583;28;21022;-74
2024/01/22 12:55:01;;;;;;;1.70;1.60;;;7.90;99.90;;;;;;5087378;28;20456;-74
2024/01/22 12:57:26;;;;;;;1.20;1.20;;;7.90;99.90;;;;;;5080654;28;20214;-74